createdAt,value
2018-09-02T00:00:34.020Z,0
2018-09-02T00:01:34.434Z,0
2018-09-02T00:02:34.035Z,0
2018-09-02T00:03:34.040Z,0
2018-09-02T00:04:34.078Z,0
2018-09-02T00:05:34.055Z,0
2018-09-02T00:06:34.058Z,0
2018-09-02T00:07:34.371Z,0
2018-09-02T00:08:34.005Z,0
2018-09-02T00:09:34.043Z,0
2018-09-02T00:10:34.032Z,0
2018-09-02T00:11:34.058Z,0
2018-09-02T00:12:34.063Z,0
2018-09-02T00:13:34.412Z,0
2018-09-02T00:14:34.076Z,0
2018-09-02T00:15:34.060Z,0
2018-09-02T00:16:34.043Z,0
2018-09-02T00:17:34.062Z,0
2018-09-02T00:18:34.067Z,0
2018-09-02T00:19:34.450Z,0
2018-09-02T00:20:34.319Z,0
2018-09-02T00:21:34.091Z,0
2018-09-02T00:22:34.064Z,0
2018-09-02T00:23:34.067Z,0
2018-09-02T00:24:34.077Z,0
2018-09-02T00:25:34.403Z,0
2018-09-02T00:26:34.126Z,0
2018-09-02T00:27:34.755Z,0
2018-09-02T00:28:34.113Z,0
2018-09-02T00:29:34.119Z,0
2018-09-02T00:30:34.113Z,0
2018-09-02T00:31:35.461Z,0
2018-09-02T00:32:34.099Z,0
2018-09-02T00:33:34.115Z,0
2018-09-02T00:34:34.108Z,0
2018-09-02T00:35:34.064Z,0
2018-09-02T00:36:34.116Z,0
2018-09-02T00:37:34.473Z,0
2018-09-02T00:38:34.191Z,0
2018-09-02T00:39:34.146Z,0
2018-09-02T00:40:34.124Z,0
2018-09-02T00:42:38.679Z,0
2018-09-02T00:42:50.887Z,0
2018-09-02T00:43:51.236Z,0
2018-09-02T00:44:51.166Z,0
2018-09-02T00:45:50.903Z,0
2018-09-02T00:46:50.843Z,0
2018-09-02T00:47:50.887Z,0
2018-09-02T00:48:50.959Z,0
2018-09-02T00:49:51.376Z,0
2018-09-02T00:50:50.898Z,0
2018-09-02T00:51:50.895Z,0
2018-09-02T00:52:50.880Z,0
2018-09-02T00:53:50.885Z,0
2018-09-02T00:54:52.293Z,0
2018-09-02T00:55:50.878Z,0
2018-09-02T00:56:50.877Z,0
2018-09-02T00:57:50.952Z,0
2018-09-02T00:58:50.859Z,0
2018-09-02T00:59:51.414Z,0
2018-09-02T01:00:51.307Z,0
2018-09-02T01:01:50.918Z,0
2018-09-02T01:02:50.925Z,0
2018-09-02T01:03:51.571Z,0
2018-09-02T01:04:50.900Z,0
2018-09-02T01:05:51.343Z,0
2018-09-02T01:06:51.214Z,0
2018-09-02T01:07:50.890Z,0
2018-09-02T01:08:50.954Z,0
2018-09-02T01:09:50.908Z,0
2018-09-02T01:10:50.903Z,0
2018-09-02T01:11:50.933Z,0
2018-09-02T01:12:51.296Z,0
2018-09-02T01:13:50.917Z,0
2018-09-02T01:14:50.924Z,0
2018-09-02T01:15:50.927Z,0
2018-09-02T01:16:50.899Z,0
2018-09-02T01:17:50.925Z,0
2018-09-02T01:18:51.356Z,0
2018-09-02T01:19:50.920Z,0
2018-09-02T01:20:50.928Z,0
2018-09-02T01:21:50.952Z,0
2018-09-02T01:22:50.985Z,0
2018-09-02T01:23:50.948Z,0
2018-09-02T01:24:50.986Z,0
2018-09-02T01:25:50.969Z,0
2018-09-02T01:26:50.933Z,0
2018-09-02T01:27:50.938Z,0
2018-09-02T01:28:51.021Z,0
2018-09-02T01:29:51.295Z,0
2018-09-02T01:30:50.910Z,0
2018-09-02T01:31:50.973Z,0
2018-09-02T01:32:50.903Z,0
2018-09-02T01:33:50.952Z,0
2018-09-02T01:34:50.928Z,0
2018-09-02T01:35:51.339Z,0
2018-09-02T01:36:50.995Z,0
2018-09-02T01:37:50.968Z,0
2018-09-02T01:38:50.947Z,0
2018-09-02T01:39:50.954Z,0
2018-09-02T01:40:50.969Z,0
2018-09-02T01:41:51.370Z,0
2018-09-02T01:42:50.978Z,0
2018-09-02T01:43:50.981Z,0
2018-09-02T01:44:51.047Z,0
2018-09-02T01:45:50.987Z,0
2018-09-02T01:46:50.964Z,0
2018-09-02T01:47:51.281Z,0
2018-09-02T01:48:50.975Z,0
2018-09-02T01:49:50.977Z,0
2018-09-02T01:50:51.000Z,0
2018-09-02T01:51:50.972Z,0
2018-09-02T01:52:50.978Z,0
2018-09-02T01:53:52.371Z,0
2018-09-02T01:54:50.977Z,0
2018-09-02T01:55:50.993Z,0
2018-09-02T01:57:55.535Z,0
2018-09-02T01:58:07.895Z,0
2018-09-02T01:59:08.074Z,0
2018-09-02T02:00:07.838Z,0
2018-09-02T02:01:08.261Z,0
2018-09-02T02:02:07.785Z,0
2018-09-02T02:03:07.755Z,0
2018-09-02T02:04:07.766Z,0
2018-09-02T02:05:09.138Z,0
2018-09-02T02:06:07.808Z,0
2018-09-02T02:07:07.782Z,0
2018-09-02T02:08:07.796Z,0
2018-09-02T02:09:07.828Z,0
2018-09-02T02:10:07.770Z,0
2018-09-02T02:11:08.150Z,0
2018-09-02T02:12:07.820Z,0
2018-09-02T02:13:07.791Z,0
2018-09-02T02:14:07.797Z,0
2018-09-02T02:15:07.870Z,0
2018-09-02T02:16:07.814Z,0
2018-09-02T02:17:08.209Z,0
2018-09-02T02:18:07.819Z,0
2018-09-02T02:19:07.795Z,0
2018-09-02T02:20:07.842Z,0
2018-09-02T02:21:07.809Z,0
2018-09-02T02:22:07.812Z,0
2018-09-02T02:23:08.240Z,0
2018-09-02T02:24:07.828Z,0
2018-09-02T02:25:07.797Z,0
2018-09-02T02:26:07.815Z,0
2018-09-02T02:27:07.856Z,0
2018-09-02T02:28:07.913Z,0
2018-09-02T02:29:08.174Z,0
2018-09-02T02:30:07.876Z,0
2018-09-02T02:31:07.809Z,0
2018-09-02T02:32:07.808Z,0
2018-09-02T02:39:32.460Z,0
2018-09-02T02:39:44.836Z,0
2018-09-02T02:40:44.663Z,0
2018-09-02T02:41:44.737Z,0
2018-09-02T02:42:44.708Z,0
2018-09-02T02:43:45.128Z,0
2018-09-02T02:44:44.698Z,0
2018-09-02T02:45:44.726Z,0
2018-09-02T02:46:44.744Z,0
2018-09-02T02:47:44.738Z,0
2018-09-02T02:48:44.744Z,0
2018-09-02T02:49:45.057Z,0
2018-09-02T02:50:44.720Z,0
2018-09-02T02:51:44.761Z,0
2018-09-02T02:52:44.737Z,0
2018-09-02T02:53:44.710Z,0
2018-09-02T02:54:44.820Z,0
2018-09-02T02:55:45.101Z,0
2018-09-02T02:56:44.748Z,0
2018-09-02T02:57:44.749Z,0
2018-09-02T02:58:44.742Z,0
2018-09-02T02:59:44.718Z,0
2018-09-02T03:00:44.759Z,0
2018-09-02T03:01:45.520Z,0
2018-09-02T03:02:44.741Z,0
2018-09-02T03:03:44.774Z,0
2018-09-02T03:04:44.755Z,0
2018-09-02T03:05:44.756Z,0
2018-09-02T03:06:44.731Z,0
2018-09-02T03:07:45.177Z,0
2018-09-02T03:08:44.775Z,0
2018-09-02T03:09:44.778Z,0
2018-09-02T03:10:44.896Z,0
2018-09-02T03:11:44.758Z,0
2018-09-02T03:12:44.761Z,0
2018-09-02T03:13:45.111Z,0
2018-09-02T03:14:44.791Z,0
2018-09-02T03:15:44.791Z,0
2018-09-02T03:16:44.763Z,0
2018-09-02T03:17:44.741Z,0
2018-09-02T03:18:45.280Z,0
2018-09-02T03:19:45.165Z,0
2018-09-02T03:20:44.784Z,0
2018-09-02T03:21:44.761Z,0
2018-09-02T03:22:44.767Z,0
2018-09-02T03:23:44.941Z,0
2018-09-02T03:24:44.780Z,0
2018-09-02T03:25:45.192Z,0
2018-09-02T03:26:44.792Z,0
2018-09-02T03:27:44.798Z,0
2018-09-02T03:35:12.835Z,0
2018-09-02T03:35:25.056Z,0
2018-09-02T03:36:25.093Z,0
2018-09-02T03:37:25.066Z,0
2018-09-02T03:38:25.013Z,0
2018-09-02T03:39:25.057Z,0
2018-09-02T03:40:25.059Z,0
2018-09-02T03:41:25.058Z,0
2018-09-02T03:42:25.069Z,0
2018-09-02T03:43:25.452Z,0
2018-09-02T03:44:25.091Z,0
2018-09-02T03:45:25.053Z,0
2018-09-02T03:46:25.106Z,0
2018-09-02T03:47:25.113Z,0
2018-09-02T03:48:25.071Z,0
2018-09-02T03:49:25.514Z,0
2018-09-02T03:50:25.086Z,0
2018-09-02T03:51:25.052Z,0
2018-09-02T03:52:25.068Z,0
2018-09-02T03:53:25.064Z,0
2018-09-02T03:54:25.104Z,0
2018-09-02T03:55:26.454Z,0
2018-09-02T03:56:25.079Z,0
2018-09-02T03:57:25.055Z,0
2018-09-02T03:58:25.062Z,0
2018-09-02T03:59:25.083Z,0
2018-09-02T04:00:25.122Z,0
2018-09-02T04:01:25.457Z,0
2018-09-02T04:02:25.092Z,0
2018-09-02T04:03:25.073Z,0
2018-09-02T04:04:25.070Z,0
2018-09-02T04:05:25.088Z,0
2018-09-02T04:06:25.118Z,0
2018-09-02T04:07:25.417Z,0
2018-09-02T04:08:25.093Z,0
2018-09-02T04:09:25.087Z,0
2018-09-02T04:10:25.106Z,0
2018-09-02T04:11:25.316Z,0
2018-09-02T04:12:25.100Z,0
2018-09-02T04:13:25.441Z,0
2018-09-02T04:14:25.103Z,0
2018-09-02T04:15:25.104Z,0
2018-09-02T04:16:25.116Z,0
2018-09-02T04:17:25.136Z,0
2018-09-02T04:18:25.170Z,0
2018-09-02T04:19:25.576Z,0
2018-09-02T04:20:25.157Z,0
2018-09-02T04:21:25.157Z,0
2018-09-02T04:22:25.161Z,0
2018-09-02T04:23:25.158Z,0
2018-09-02T04:24:25.122Z,0
2018-09-02T04:25:25.410Z,0
2018-09-02T04:26:25.145Z,0
2018-09-02T04:27:25.116Z,0
2018-09-02T04:28:25.123Z,0
2018-09-02T04:29:25.137Z,0
2018-09-02T04:30:25.138Z,0
2018-09-02T04:31:25.554Z,0
2018-09-02T04:32:25.149Z,0
2018-09-02T04:33:25.156Z,0
2018-09-02T04:34:25.129Z,0
2018-09-02T04:35:25.168Z,0
2018-09-02T04:36:25.148Z,4
2018-09-02T04:37:26.515Z,4
2018-09-02T04:38:25.189Z,4
2018-09-02T04:39:25.195Z,4
2018-09-02T04:40:25.201Z,0
2018-09-02T04:41:25.225Z,0
2018-09-02T04:42:25.127Z,0
2018-09-02T04:43:25.535Z,0
2018-09-02T04:44:25.196Z,0
2018-09-02T04:45:25.439Z,0
2018-09-02T04:46:25.158Z,0
2018-09-02T04:47:25.144Z,0
2018-09-02T04:48:25.152Z,4
2018-09-02T04:49:25.572Z,4
2018-09-02T04:50:25.384Z,4
2018-09-02T04:51:25.206Z,4
2018-09-02T04:52:25.177Z,4
2018-09-02T04:53:25.183Z,0
2018-09-02T04:54:25.355Z,4
2018-09-02T04:55:25.605Z,4
2018-09-02T04:56:25.167Z,0
2018-09-02T04:57:25.163Z,4
2018-09-02T04:58:25.226Z,4
2018-09-02T04:59:25.235Z,4
2018-09-02T05:00:25.452Z,8
2018-09-02T05:01:25.563Z,4
2018-09-02T05:02:25.209Z,4
2018-09-02T05:03:25.186Z,8
2018-09-02T05:04:25.204Z,4
2018-09-02T05:05:25.196Z,4
2018-09-02T05:06:25.175Z,8
2018-09-02T05:07:25.587Z,4
2018-09-02T05:08:25.284Z,8
2018-09-02T05:09:25.189Z,8
2018-09-02T05:10:25.236Z,4
2018-09-02T05:11:25.246Z,8
2018-09-02T05:12:25.225Z,8
2018-09-02T05:13:25.531Z,8
2018-09-02T05:14:25.218Z,12
2018-09-02T05:15:25.332Z,12
2018-09-02T05:16:25.206Z,8
2018-09-02T05:17:25.209Z,12
2018-09-02T05:18:25.209Z,16
2018-09-02T05:20:42.777Z,12
2018-09-02T05:21:42.476Z,12
2018-09-02T05:22:42.451Z,12
2018-09-02T05:23:42.445Z,16
2018-09-02T05:24:42.450Z,16
2018-09-02T05:25:42.473Z,16
2018-09-02T05:26:43.834Z,16
2018-09-02T05:27:42.415Z,16
2018-09-02T05:28:42.528Z,16
2018-09-02T05:29:42.429Z,20
2018-09-02T05:30:42.468Z,24
2018-09-02T05:31:42.476Z,24
2018-09-02T05:32:46.959Z,20
2018-09-02T05:33:42.510Z,20
2018-09-02T05:34:42.457Z,20
2018-09-02T05:35:42.476Z,20
2018-09-02T05:36:42.641Z,20
2018-09-02T05:37:42.470Z,24
2018-09-02T05:38:42.791Z,20
2018-09-02T05:39:42.498Z,20
2018-09-02T05:44:59.786Z,20
2018-09-02T05:45:12.357Z,24
2018-09-02T05:46:12.061Z,20
2018-09-02T05:49:18.835Z,20
2018-09-02T05:49:31.152Z,20
2018-09-02T05:50:31.397Z,20
2018-09-02T05:51:31.060Z,20
2018-09-02T05:52:31.007Z,16
2018-09-02T05:53:31.076Z,20
2018-09-02T05:54:31.062Z,20
2018-09-02T05:55:31.153Z,20
2018-09-02T05:56:31.435Z,20
2018-09-02T05:57:31.160Z,24
2018-09-02T05:58:31.092Z,28
2018-09-02T05:59:31.055Z,24
2018-09-02T06:00:31.067Z,28
2018-09-02T06:01:31.129Z,28
2018-09-02T06:02:31.474Z,32
2018-09-02T06:03:31.105Z,32
2018-09-02T06:04:31.043Z,36
2018-09-02T06:05:31.103Z,36
2018-09-02T06:06:31.051Z,36
2018-09-02T06:07:31.060Z,40
2018-09-02T06:08:31.416Z,44
2018-09-02T06:09:31.107Z,48
2018-09-02T06:10:31.079Z,48
2018-09-02T06:11:31.162Z,48
2018-09-02T06:12:31.060Z,48
2018-09-02T06:13:31.085Z,44
2018-09-02T06:14:31.448Z,44
2018-09-02T06:15:31.079Z,40
2018-09-02T06:20:47.499Z,36
2018-09-02T06:20:59.714Z,36
2018-09-02T06:21:59.688Z,36
2018-09-02T06:22:59.704Z,36
2018-09-02T06:23:59.708Z,36
2018-09-02T06:24:59.708Z,40
2018-09-02T06:25:59.683Z,44
2018-09-02T06:26:59.723Z,48
2018-09-02T06:27:59.715Z,52
2018-09-02T06:28:59.836Z,52
2018-09-02T06:29:59.832Z,56
2018-09-02T06:30:59.718Z,56
2018-09-02T06:32:00.133Z,60
2018-09-02T06:32:59.979Z,64
2018-09-02T06:34:19.569Z,64
2018-09-02T06:34:59.706Z,64
2018-09-02T06:35:59.849Z,68
2018-09-02T06:36:59.758Z,68
2018-09-02T06:38:00.066Z,68
2018-09-02T06:38:59.733Z,72
2018-09-02T06:39:59.740Z,72
2018-09-02T06:40:59.721Z,68
2018-09-02T06:41:59.723Z,68
2018-09-02T06:42:59.778Z,72
2018-09-02T06:44:59.809Z,72
2018-09-02T06:45:59.814Z,76
2018-09-02T06:53:28.047Z,76
2018-09-02T06:53:40.340Z,80
2018-09-02T06:54:40.293Z,80
2018-09-02T06:55:40.284Z,76
2018-09-02T06:56:40.288Z,72
2018-09-02T06:57:40.295Z,72
2018-09-02T06:58:40.882Z,72
2018-09-02T06:59:40.311Z,68
2018-09-02T07:00:40.258Z,64
2018-09-02T07:01:40.303Z,64
2018-09-02T07:04:47.880Z,60
2018-09-02T07:05:00.112Z,64
2018-09-02T07:06:00.081Z,64
2018-09-02T07:07:00.177Z,60
2018-09-02T07:08:00.091Z,60
2018-09-02T07:09:00.083Z,64
2018-09-02T07:10:00.493Z,68
2018-09-02T07:11:00.110Z,76
2018-09-02T07:12:00.219Z,80
2018-09-02T07:13:00.125Z,84
2018-09-02T07:14:00.135Z,80
2018-09-02T07:15:00.105Z,76
2018-09-02T07:16:00.525Z,80
2018-09-02T07:17:00.135Z,80
2018-09-02T07:18:00.163Z,88
2018-09-02T07:19:00.185Z,92
2018-09-02T07:20:00.154Z,100
2018-09-02T07:21:00.109Z,100
2018-09-02T07:22:02.519Z,96
2018-09-02T07:23:00.095Z,96
2018-09-02T07:24:01.514Z,88
2018-09-02T07:25:00.147Z,80
2018-09-02T07:26:00.140Z,84
2018-09-02T07:27:00.127Z,88
2018-09-02T07:28:00.500Z,92
2018-09-02T07:29:00.125Z,96
2018-09-02T07:30:00.166Z,100
2018-09-02T07:31:00.188Z,100
2018-09-02T07:32:00.121Z,100
2018-09-02T07:33:00.128Z,96
2018-09-02T07:34:00.539Z,92
2018-09-02T07:35:00.164Z,88
2018-09-02T07:36:00.154Z,88
2018-09-02T07:37:00.144Z,92
2018-09-02T07:38:00.199Z,96
2018-09-02T07:39:00.163Z,104
2018-09-02T07:40:00.503Z,116
2018-09-02T07:45:18.005Z,120
2018-09-02T07:45:30.572Z,140
2018-09-02T07:46:30.229Z,140
2018-09-02T07:50:59.728Z,132
2018-09-02T07:51:59.374Z,136
2018-09-02T07:52:59.398Z,136
2018-09-02T07:53:59.354Z,140
2018-09-02T07:54:59.382Z,144
2018-09-02T07:55:59.354Z,160
2018-09-02T07:56:59.668Z,176
2018-09-02T07:57:59.360Z,188
2018-09-02T07:58:59.387Z,204
2018-09-02T07:59:59.584Z,220
2018-09-02T08:00:59.346Z,244
2018-09-02T08:01:59.424Z,256
2018-09-02T08:03:00.728Z,260
2018-09-02T08:03:59.337Z,276
2018-09-02T08:04:59.374Z,300
2018-09-02T08:05:59.353Z,316
2018-09-02T08:06:59.349Z,324
2018-09-02T08:07:59.404Z,328
2018-09-02T08:08:59.775Z,340
2018-09-02T08:09:59.342Z,332
2018-09-02T08:10:59.323Z,312
2018-09-02T08:11:59.354Z,292
2018-09-02T08:12:59.612Z,264
2018-09-02T08:13:59.369Z,236
2018-09-02T08:14:59.888Z,212
2018-09-02T08:15:59.383Z,192
2018-09-02T08:16:59.387Z,176
2018-09-02T08:17:59.364Z,160
2018-09-02T08:19:00.096Z,136
2018-09-02T08:20:00.248Z,128
2018-09-02T08:20:59.715Z,120
2018-09-02T08:21:59.400Z,116
2018-09-02T08:22:59.524Z,116
2018-09-02T08:23:59.358Z,108
2018-09-02T08:24:59.502Z,92
2018-09-02T08:25:59.372Z,88
2018-09-02T08:26:59.761Z,80
2018-09-02T08:27:59.455Z,76
2018-09-02T08:28:59.407Z,80
2018-09-02T08:29:59.397Z,80
2018-09-02T08:30:59.444Z,84
2018-09-02T08:31:59.419Z,88
2018-09-02T08:33:00.009Z,88
2018-09-02T08:33:59.461Z,88
2018-09-02T08:34:59.410Z,84
2018-09-02T08:35:59.405Z,84
2018-09-02T08:36:59.411Z,88
2018-09-02T08:37:59.456Z,88
2018-09-02T08:38:59.951Z,96
2018-09-02T08:39:59.396Z,100
2018-09-02T08:40:59.399Z,100
2018-09-02T08:41:59.444Z,100
2018-09-02T08:42:59.428Z,100
2018-09-02T08:43:59.461Z,96
2018-09-02T08:44:59.772Z,100
2018-09-02T08:45:59.405Z,104
2018-09-02T08:51:16.638Z,100
2018-09-02T08:51:29.303Z,96
2018-09-02T08:52:29.191Z,92
2018-09-02T08:53:29.198Z,88
2018-09-02T08:54:29.190Z,84
2018-09-02T08:55:29.191Z,88
2018-09-02T08:56:29.170Z,88
2018-09-02T08:57:29.205Z,96
2018-09-02T08:58:29.220Z,100
2018-09-02T08:59:29.188Z,108
2018-09-02T09:00:29.194Z,112
2018-09-02T09:01:29.171Z,116
2018-09-02T09:02:29.594Z,120
2018-09-02T09:03:29.178Z,120
2018-09-02T09:04:29.186Z,128
2018-09-02T09:05:29.198Z,144
2018-09-02T09:06:29.133Z,156
2018-09-02T09:07:29.343Z,176
2018-09-02T09:08:30.097Z,192
2018-09-02T09:09:29.218Z,200
2018-09-02T09:10:29.202Z,196
2018-09-02T09:11:29.158Z,196
2018-09-02T09:12:29.234Z,208
2018-09-02T09:13:29.218Z,220
2018-09-02T09:14:29.556Z,240
2018-09-02T09:15:29.162Z,252
2018-09-02T09:16:29.311Z,248
2018-09-02T09:17:29.273Z,252
2018-09-02T09:18:30.062Z,268
2018-09-02T09:19:29.176Z,288
2018-09-02T09:20:29.480Z,304
2018-09-02T09:21:29.334Z,312
2018-09-02T09:22:29.314Z,312
2018-09-02T09:23:29.224Z,308
2018-09-02T09:24:29.220Z,304
2018-09-02T09:25:29.337Z,292
2018-09-02T09:26:29.533Z,284
2018-09-02T09:27:29.202Z,280
2018-09-02T09:28:29.247Z,280
2018-09-02T09:29:29.226Z,284
2018-09-02T09:30:29.259Z,296
2018-09-02T09:31:29.239Z,308
2018-09-02T09:32:30.290Z,308
2018-09-02T09:33:29.214Z,308
2018-09-02T09:34:29.225Z,308
2018-09-02T09:35:29.265Z,308
2018-09-02T09:36:29.304Z,300
2018-09-02T09:37:29.334Z,296
2018-09-02T09:38:29.481Z,292
2018-09-02T09:39:29.205Z,296
2018-09-02T09:40:29.235Z,296
2018-09-02T09:41:29.218Z,292
2018-09-02T09:42:29.260Z,288
2018-09-02T09:43:29.338Z,300
2018-09-02T09:44:31.702Z,312
2018-09-02T09:45:29.268Z,324
2018-09-02T09:46:29.254Z,328
2018-09-02T09:47:29.258Z,332
2018-09-02T09:48:29.248Z,340
2018-09-02T09:49:29.239Z,352
2018-09-02T09:50:30.627Z,356
2018-09-02T09:51:29.336Z,356
2018-09-02T09:52:29.258Z,356
2018-09-02T09:55:36.589Z,328
2018-09-02T09:55:48.948Z,328
2018-09-02T09:56:50.207Z,316
2018-09-02T09:57:48.812Z,292
2018-09-02T09:58:48.860Z,268
2018-09-02T09:59:48.862Z,248
2018-09-02T10:00:48.831Z,248
2018-09-02T10:01:48.875Z,248
2018-09-02T10:02:48.948Z,232
2018-09-02T10:03:49.020Z,212
2018-09-02T10:04:48.927Z,188
2018-09-02T10:05:48.836Z,168
2018-09-02T10:06:48.843Z,160
2018-09-02T10:07:48.849Z,160
2018-09-02T10:08:49.879Z,148
2018-09-02T10:09:48.869Z,140
2018-09-02T10:10:49.006Z,144
2018-09-02T10:11:49.132Z,148
2018-09-02T10:12:48.879Z,152
2018-09-02T10:13:48.896Z,160
2018-09-02T10:14:50.330Z,164
2018-09-02T10:15:48.847Z,172
2018-09-02T10:16:48.943Z,184
2018-09-02T10:17:48.947Z,184
2018-09-02T10:18:48.890Z,188
2018-09-02T10:19:49.419Z,188
2018-09-02T10:20:49.190Z,196
2018-09-02T10:21:48.962Z,208
2018-09-02T10:22:48.905Z,208
2018-09-02T10:23:48.882Z,196
2018-09-02T10:24:48.889Z,188
2018-09-02T10:26:05.594Z,192
2018-09-02T10:27:05.895Z,204
2018-09-02T10:28:05.568Z,220
2018-09-02T10:29:05.602Z,232
2018-09-02T10:30:05.681Z,232
2018-09-02T10:31:05.652Z,216
2018-09-02T10:32:05.624Z,200
2018-09-02T10:33:05.703Z,188
2018-09-02T10:34:05.649Z,188
2018-09-02T10:35:05.688Z,192
2018-09-02T10:36:05.663Z,196
2018-09-02T10:37:05.632Z,208
2018-09-02T10:38:05.769Z,224
2018-09-02T10:39:05.946Z,236
2018-09-02T10:40:05.697Z,248
2018-09-02T10:41:05.753Z,256
2018-09-02T10:42:05.655Z,268
2018-09-02T10:43:05.665Z,276
2018-09-02T10:44:05.758Z,288
2018-09-02T10:45:06.024Z,292
2018-09-02T10:46:05.654Z,276
2018-09-02T10:47:05.621Z,268
2018-09-02T10:48:05.704Z,272
2018-09-02T10:49:05.707Z,300
2018-09-02T10:50:05.717Z,332
2018-09-02T10:51:07.062Z,336
2018-09-02T10:52:05.666Z,324
2018-09-02T10:53:05.802Z,312
2018-09-02T10:54:05.640Z,308
2018-09-02T10:55:05.704Z,308
2018-09-02T10:56:05.702Z,304
2018-09-02T10:57:06.065Z,320
2018-09-02T10:58:05.697Z,340
2018-09-02T10:59:05.703Z,352
2018-09-02T11:00:05.777Z,364
2018-09-02T11:01:05.720Z,368
2018-09-02T11:02:05.749Z,364
2018-09-02T11:03:05.736Z,352
2018-09-02T11:04:05.716Z,344
2018-09-02T11:05:05.828Z,364
2018-09-02T11:06:05.714Z,392
2018-09-02T11:07:05.788Z,412
2018-09-02T11:08:06.242Z,408
2018-09-02T11:09:05.736Z,396
2018-09-02T11:10:05.951Z,404
2018-09-02T11:11:05.754Z,392
2018-09-02T11:12:05.754Z,372
2018-09-02T11:13:05.952Z,352
2018-09-02T11:14:09.668Z,356
2018-09-02T11:15:05.819Z,376
2018-09-02T11:16:05.731Z,376
2018-09-02T11:17:05.796Z,372
2018-09-02T11:18:05.857Z,364
2018-09-02T11:19:05.832Z,352
2018-09-02T11:20:06.041Z,348
2018-09-02T11:21:05.816Z,356
2018-09-02T11:22:05.778Z,360
2018-09-02T11:23:05.721Z,340
2018-09-02T11:24:05.740Z,304
2018-09-02T11:25:05.776Z,284
2018-09-02T11:26:06.115Z,272
2018-09-02T11:27:05.738Z,264
2018-09-02T11:28:05.758Z,252
2018-09-02T11:29:05.732Z,232
2018-09-02T11:30:05.766Z,224
2018-09-02T11:31:05.737Z,224
2018-09-02T11:32:09.511Z,228
2018-09-02T11:33:05.788Z,228
2018-09-02T11:34:05.954Z,224
2018-09-02T11:35:05.866Z,216
2018-09-02T11:36:05.805Z,204
2018-09-02T11:37:05.763Z,196
2018-09-02T11:38:07.225Z,188
2018-09-02T11:39:05.827Z,184
2018-09-02T11:40:05.845Z,184
2018-09-02T11:41:05.774Z,184
2018-09-02T11:42:05.787Z,188
2018-09-02T11:43:05.768Z,184
2018-09-02T11:44:06.062Z,176
2018-09-02T11:45:06.020Z,172
2018-09-02T11:46:05.767Z,168
2018-09-02T11:47:05.944Z,168
2018-09-02T11:48:05.798Z,168
2018-09-02T11:49:05.820Z,168
2018-09-02T11:50:06.133Z,168
2018-09-02T11:51:05.848Z,168
2018-09-02T11:52:05.771Z,164
2018-09-02T11:53:05.817Z,160
2018-09-02T11:54:05.759Z,152
2018-09-02T11:55:05.947Z,148
2018-09-02T11:56:06.141Z,144
2018-09-02T11:57:06.008Z,140
2018-09-02T11:58:05.791Z,136
2018-09-02T11:59:05.816Z,144
2018-09-02T12:00:05.849Z,152
2018-09-02T12:01:05.847Z,160
2018-09-02T12:02:06.217Z,172
2018-09-02T12:03:05.810Z,180
2018-09-02T12:04:06.055Z,192
2018-09-02T12:05:05.936Z,196
2018-09-02T12:06:05.797Z,200
2018-09-02T12:07:05.802Z,196
2018-09-02T12:08:08.266Z,188
2018-09-02T12:09:05.853Z,184
2018-09-02T12:10:05.824Z,172
2018-09-02T12:11:07.095Z,172
2018-09-02T12:12:05.812Z,176
2018-09-02T12:13:05.866Z,176
2018-09-02T12:14:06.275Z,184
2018-09-02T12:15:05.925Z,184
2018-09-02T12:16:05.831Z,184
2018-09-02T12:17:05.899Z,180
2018-09-02T12:18:05.796Z,180
2018-09-02T12:19:06.400Z,176
2018-09-02T12:20:06.199Z,172
2018-09-02T12:21:05.860Z,168
2018-09-02T12:22:05.900Z,160
2018-09-02T12:23:05.807Z,160
2018-09-02T12:24:05.925Z,152
2018-09-02T12:25:05.864Z,148
2018-09-02T12:26:07.156Z,136
2018-09-02T12:27:05.838Z,128
2018-09-02T12:28:05.846Z,120
2018-09-02T12:29:05.915Z,116
2018-09-02T12:30:05.856Z,116
2018-09-02T12:31:05.801Z,116
2018-09-02T12:32:06.172Z,116
2018-09-02T12:33:05.870Z,112
2018-09-02T12:34:05.882Z,108
2018-09-02T12:35:05.929Z,108
2018-09-02T12:36:05.853Z,108
2018-09-02T12:37:05.928Z,108
2018-09-02T12:38:09.794Z,116
2018-09-02T12:39:05.873Z,120
2018-09-02T12:40:05.914Z,128
2018-09-02T12:41:05.963Z,132
2018-09-02T12:42:05.931Z,132
2018-09-02T12:43:05.900Z,136
2018-09-02T12:44:06.189Z,136
2018-09-02T12:45:05.886Z,140
2018-09-02T12:46:05.917Z,140
2018-09-02T12:47:05.866Z,140
2018-09-02T12:48:06.088Z,128
2018-09-02T12:49:05.910Z,120
2018-09-02T12:50:06.291Z,116
2018-09-02T12:51:05.851Z,112
2018-09-02T12:52:05.891Z,104
2018-09-02T12:53:05.902Z,96
2018-09-02T12:54:05.911Z,92
2018-09-02T12:55:06.103Z,92
2018-09-02T12:56:10.013Z,88
2018-09-02T12:57:05.926Z,88
2018-09-02T12:58:05.902Z,88
2018-09-02T12:59:05.869Z,88
2018-09-02T13:00:05.911Z,92
2018-09-02T13:01:06.007Z,92
2018-09-02T13:02:06.266Z,96
2018-09-02T13:03:05.894Z,100
2018-09-02T13:04:05.934Z,104
2018-09-02T13:05:05.950Z,108
2018-09-02T13:06:05.894Z,108
2018-09-02T13:07:05.926Z,104
2018-09-02T13:08:06.343Z,104
2018-09-02T13:09:05.971Z,108
2018-09-02T13:10:05.992Z,104
2018-09-02T13:11:05.931Z,100
2018-09-02T13:12:05.928Z,100
2018-09-02T13:13:05.927Z,96
2018-09-02T13:14:06.342Z,88
2018-09-02T13:15:06.113Z,88
2018-09-02T13:16:06.089Z,84
2018-09-02T13:17:06.929Z,80
2018-09-02T13:18:06.311Z,80
2018-09-02T13:19:48.206Z,80
2018-09-02T13:20:05.945Z,80
2018-09-02T13:21:06.388Z,80
2018-09-02T13:22:06.129Z,80
2018-09-02T13:23:06.153Z,80
2018-09-02T13:24:06.195Z,80
2018-09-02T13:25:06.311Z,76
2018-09-02T13:26:43.196Z,76
2018-09-02T13:27:43.196Z,80
2018-09-02T13:28:43.170Z,80
2018-09-02T13:29:43.420Z,88
2018-09-02T13:30:43.620Z,96
2018-09-02T13:31:43.320Z,104
2018-09-02T13:32:43.360Z,108
2018-09-02T13:33:43.808Z,116
2018-09-02T13:34:43.301Z,128
2018-09-02T13:35:43.268Z,136
2018-09-02T13:36:43.557Z,136
2018-09-02T13:37:43.293Z,144
2018-09-02T13:38:43.193Z,144
2018-09-02T13:39:43.183Z,136
2018-09-02T13:40:43.210Z,124
2018-09-02T13:41:43.257Z,108
2018-09-02T13:42:44.619Z,96
2018-09-02T13:43:43.295Z,92
2018-09-02T13:44:43.310Z,92
2018-09-02T13:45:43.411Z,92
2018-09-02T13:46:43.247Z,92
2018-09-02T13:47:43.306Z,92
2018-09-02T13:48:43.641Z,96
2018-09-02T13:49:43.201Z,96
2018-09-02T13:50:43.239Z,96
2018-09-02T13:51:43.467Z,100
2018-09-02T13:52:43.221Z,100
2018-09-02T13:53:43.267Z,108
2018-09-02T13:54:44.768Z,116
2018-09-02T13:55:43.317Z,116
2018-09-02T13:56:43.414Z,108
2018-09-02T13:57:43.357Z,104
2018-09-02T13:58:43.231Z,104
2018-09-02T13:59:43.392Z,112
2018-09-02T14:00:43.617Z,120
2018-09-02T14:01:43.294Z,128
2018-09-02T14:02:43.223Z,136
2018-09-02T14:03:43.236Z,144
2018-09-02T14:04:43.241Z,148
2018-09-02T14:05:43.317Z,140
2018-09-02T14:06:43.656Z,128
2018-09-02T14:07:43.475Z,112
2018-09-02T14:08:43.298Z,108
2018-09-02T14:09:43.230Z,112
2018-09-02T14:10:43.286Z,120
2018-09-02T14:11:43.384Z,120
2018-09-02T14:12:45.671Z,108
2018-09-02T14:13:43.355Z,96
2018-09-02T14:14:43.368Z,80
2018-09-02T14:15:43.299Z,76
2018-09-02T14:16:43.388Z,72
2018-09-02T14:17:43.826Z,76
2018-09-02T14:18:45.438Z,76
2018-09-02T14:19:43.403Z,84
2018-09-02T14:20:43.240Z,88
2018-09-02T14:21:43.268Z,80
2018-09-02T14:22:43.308Z,72
2018-09-02T14:23:43.370Z,72
2018-09-02T14:24:43.664Z,68
2018-09-02T14:25:43.312Z,72
2018-09-02T14:26:43.305Z,80
2018-09-02T14:27:43.280Z,88
2018-09-02T14:28:43.330Z,92
2018-09-02T14:29:43.342Z,100
2018-09-02T14:30:44.638Z,100
2018-09-02T14:31:43.308Z,100
2018-09-02T14:32:43.325Z,96
2018-09-02T14:33:43.315Z,92
2018-09-02T14:34:43.324Z,84
2018-09-02T14:35:43.283Z,76
2018-09-02T14:36:43.642Z,68
2018-09-02T14:37:43.309Z,64
2018-09-02T14:38:43.312Z,68
2018-09-02T14:39:43.317Z,68
2018-09-02T14:40:43.399Z,68
2018-09-02T14:41:43.329Z,68
2018-09-02T14:42:50.999Z,64
2018-09-02T14:43:46.804Z,64
2018-09-02T14:45:42.680Z,64
2018-09-02T14:46:43.329Z,64
2018-09-02T14:47:43.305Z,64
2018-09-02T14:48:43.721Z,64
2018-09-02T14:49:43.715Z,60
2018-09-02T14:50:43.492Z,56
2018-09-02T14:51:43.405Z,56
2018-09-02T14:52:43.310Z,56
2018-09-02T14:53:43.601Z,60
2018-09-02T14:54:43.770Z,64
2018-09-02T14:55:43.321Z,68
2018-09-02T14:56:43.466Z,72
2018-09-02T14:57:43.387Z,72